sensor_id;sensor_type;location;lat;lon;timestamp;P1;durP1;ratioP1;P2;durP2;ratioP2
30233;SDS011;17046;52.074;4.748;2022-10-26T00:01:17;14.97;;;8.77;;
30233;SDS011;17046;52.074;4.748;2022-10-26T00:03:43;16.30;;;8.53;;
30233;SDS011;17046;52.074;4.748;2022-10-26T00:06:14;17.77;;;8.50;;
30233;SDS011;17046;52.074;4.748;2022-10-26T00:08:40;18.97;;;8.80;;
30233;SDS011;17046;52.074;4.748;2022-10-26T00:11:06;14.43;;;8.93;;
30233;SDS011;17046;52.074;4.748;2022-10-26T00:13:33;12.87;;;8.13;;
30233;SDS011;17046;52.074;4.748;2022-10-26T00:16:00;15.00;;;8.40;;
30233;SDS011;17046;52.074;4.748;2022-10-26T00:18:31;15.60;;;8.93;;
30233;SDS011;17046;52.074;4.748;2022-10-26T00:21:01;17.97;;;9.43;;
30233;SDS011;17046;52.074;4.748;2022-10-26T00:23:28;18.60;;;9.27;;
30233;SDS011;17046;52.074;4.748;2022-10-26T00:25:54;14.93;;;8.70;;
30233;SDS011;17046;52.074;4.748;2022-10-26T00:28:20;13.80;;;8.67;;
30233;SDS011;17046;52.074;4.748;2022-10-26T00:30:46;13.67;;;8.50;;
30233;SDS011;17046;52.074;4.748;2022-10-26T00:33:12;16.97;;;8.60;;
30233;SDS011;17046;52.074;4.748;2022-10-26T00:35:37;15.53;;;8.57;;
30233;SDS011;17046;52.074;4.748;2022-10-26T00:38:03;15.23;;;8.90;;
30233;SDS011;17046;52.074;4.748;2022-10-26T00:40:29;13.57;;;8.37;;
30233;SDS011;17046;52.074;4.748;2022-10-26T00:42:54;14.10;;;8.20;;
30233;SDS011;17046;52.074;4.748;2022-10-26T00:47:55;12.97;;;8.30;;
30233;SDS011;17046;52.074;4.748;2022-10-26T00:50:25;14.47;;;8.17;;
30233;SDS011;17046;52.074;4.748;2022-10-26T00:52:56;15.73;;;8.50;;
30233;SDS011;17046;52.074;4.748;2022-10-26T00:55:26;14.43;;;8.77;;
30233;SDS011;17046;52.074;4.748;2022-10-26T00:57:56;17.37;;;9.27;;
30233;SDS011;17046;52.074;4.748;2022-10-26T01:00:22;17.30;;;8.77;;
30233;SDS011;17046;52.074;4.748;2022-10-26T01:02:48;13.60;;;8.07;;
30233;SDS011;17046;52.074;4.748;2022-10-26T01:05:16;14.63;;;8.60;;
30233;SDS011;17046;52.074;4.748;2022-10-26T01:07:43;16.37;;;8.80;;
30233;SDS011;17046;52.074;4.748;2022-10-26T01:10:10;13.43;;;8.83;;
30233;SDS011;17046;52.074;4.748;2022-10-26T01:12:37;14.80;;;8.33;;
30233;SDS011;17046;52.074;4.748;2022-10-26T01:15:04;14.43;;;8.13;;
30233;SDS011;17046;52.074;4.748;2022-10-26T01:23:29;18.80;;;8.37;;
30233;SDS011;17046;52.074;4.748;2022-10-26T01:26:04;15.43;;;8.67;;
30233;SDS011;17046;52.074;4.748;2022-10-26T01:28:40;14.73;;;8.73;;
30233;SDS011;17046;52.074;4.748;2022-10-26T01:31:10;15.50;;;8.43;;
30233;SDS011;17046;52.074;4.748;2022-10-26T01:33:44;10.97;;;8.23;;
30233;SDS011;17046;52.074;4.748;2022-10-26T01:36:24;16.50;;;8.40;;
30233;SDS011;17046;52.074;4.748;2022-10-26T01:41:39;14.47;;;9.00;;
30233;SDS011;17046;52.074;4.748;2022-10-26T01:44:13;12.47;;;8.20;;
30233;SDS011;17046;52.074;4.748;2022-10-26T01:46:55;14.80;;;8.93;;
30233;SDS011;17046;52.074;4.748;2022-10-26T01:49:33;15.27;;;8.90;;
30233;SDS011;17046;52.074;4.748;2022-10-26T01:52:02;18.20;;;9.53;;
30233;SDS011;17046;52.074;4.748;2022-10-26T01:54:28;17.40;;;10.13;;
30233;SDS011;17046;52.074;4.748;2022-10-26T01:56:55;15.83;;;9.30;;
30233;SDS011;17046;52.074;4.748;2022-10-26T01:59:31;15.93;;;8.93;;
30233;SDS011;17046;52.074;4.748;2022-10-26T02:05:02;16.43;;;9.47;;
30233;SDS011;17046;52.074;4.748;2022-10-26T02:15:44;13.40;;;8.57;;
30233;SDS011;17046;52.074;4.748;2022-10-26T02:20:51;16.00;;;8.50;;
30233;SDS011;17046;52.074;4.748;2022-10-26T02:23:22;13.23;;;8.20;;
30233;SDS011;17046;52.074;4.748;2022-10-26T02:25:50;16.57;;;8.37;;
30233;SDS011;17046;52.074;4.748;2022-10-26T02:28:21;13.80;;;7.97;;
30233;SDS011;17046;52.074;4.748;2022-10-26T02:30:58;15.27;;;7.87;;
30233;SDS011;17046;52.074;4.748;2022-10-26T02:33:25;11.40;;;7.70;;
30233;SDS011;17046;52.074;4.748;2022-10-26T02:35:54;11.00;;;7.57;;
30233;SDS011;17046;52.074;4.748;2022-10-26T02:38:24;15.03;;;7.87;;
30233;SDS011;17046;52.074;4.748;2022-10-26T02:40:52;12.90;;;7.40;;
30233;SDS011;17046;52.074;4.748;2022-10-26T02:43:20;11.47;;;6.83;;
30233;SDS011;17046;52.074;4.748;2022-10-26T02:45:48;13.53;;;7.63;;
30233;SDS011;17046;52.074;4.748;2022-10-26T02:48:18;12.47;;;7.13;;
30233;SDS011;17046;52.074;4.748;2022-10-26T02:53:27;12.60;;;7.20;;
30233;SDS011;17046;52.074;4.748;2022-10-26T02:55:54;14.87;;;7.03;;
30233;SDS011;17046;52.074;4.748;2022-10-26T02:58:28;10.40;;;6.87;;
30233;SDS011;17046;52.074;4.748;2022-10-26T03:00:57;14.53;;;7.23;;
30233;SDS011;17046;52.074;4.748;2022-10-26T03:03:23;11.13;;;7.27;;
30233;SDS011;17046;52.074;4.748;2022-10-26T03:05:49;13.10;;;6.97;;
30233;SDS011;17046;52.074;4.748;2022-10-26T03:08:14;14.13;;;6.97;;
30233;SDS011;17046;52.074;4.748;2022-10-26T03:10:41;12.20;;;6.93;;
30233;SDS011;17046;52.074;4.748;2022-10-26T03:13:08;13.07;;;6.20;;
30233;SDS011;17046;52.074;4.748;2022-10-26T03:15:34;8.90;;;6.40;;
30233;SDS011;17046;52.074;4.748;2022-10-26T03:18:00;12.27;;;6.97;;
30233;SDS011;17046;52.074;4.748;2022-10-26T03:20:26;11.33;;;7.17;;
30233;SDS011;17046;52.074;4.748;2022-10-26T03:22:51;12.00;;;7.17;;
30233;SDS011;17046;52.074;4.748;2022-10-26T03:25:17;10.13;;;6.67;;
30233;SDS011;17046;52.074;4.748;2022-10-26T03:27:43;9.90;;;6.87;;
30233;SDS011;17046;52.074;4.748;2022-10-26T03:30:08;9.20;;;6.63;;
30233;SDS011;17046;52.074;4.748;2022-10-26T03:32:34;14.70;;;6.83;;
30233;SDS011;17046;52.074;4.748;2022-10-26T03:35:00;14.13;;;7.20;;
30233;SDS011;17046;52.074;4.748;2022-10-26T03:40:47;11.97;;;6.90;;
30233;SDS011;17046;52.074;4.748;2022-10-26T03:43:13;11.83;;;6.50;;
30233;SDS011;17046;52.074;4.748;2022-10-26T03:45:38;11.00;;;6.43;;
30233;SDS011;17046;52.074;4.748;2022-10-26T03:48:04;9.63;;;6.40;;
30233;SDS011;17046;52.074;4.748;2022-10-26T03:50:30;11.83;;;6.90;;
30233;SDS011;17046;52.074;4.748;2022-10-26T03:52:55;9.33;;;6.23;;
30233;SDS011;17046;52.074;4.748;2022-10-26T03:55:21;14.60;;;7.17;;
30233;SDS011;17046;52.074;4.748;2022-10-26T03:57:46;12.97;;;6.67;;
30233;SDS011;17046;52.074;4.748;2022-10-26T04:00:13;12.13;;;7.00;;
30233;SDS011;17046;52.074;4.748;2022-10-26T04:02:41;12.63;;;6.47;;
30233;SDS011;17046;52.074;4.748;2022-10-26T04:05:07;12.43;;;7.27;;
30233;SDS011;17046;52.074;4.748;2022-10-26T04:07:33;11.80;;;6.80;;
30233;SDS011;17046;52.074;4.748;2022-10-26T04:09:59;10.73;;;6.77;;
30233;SDS011;17046;52.074;4.748;2022-10-26T04:12:24;11.93;;;6.77;;
30233;SDS011;17046;52.074;4.748;2022-10-26T04:14:50;12.07;;;6.60;;
30233;SDS011;17046;52.074;4.748;2022-10-26T04:17:15;10.87;;;6.80;;
30233;SDS011;17046;52.074;4.748;2022-10-26T04:19:41;11.73;;;6.57;;
30233;SDS011;17046;52.074;4.748;2022-10-26T04:22:06;10.67;;;6.90;;
30233;SDS011;17046;52.074;4.748;2022-10-26T04:24:32;13.43;;;7.13;;
30233;SDS011;17046;52.074;4.748;2022-10-26T04:26:57;12.43;;;6.83;;
30233;SDS011;17046;52.074;4.748;2022-10-26T04:29:23;12.47;;;7.20;;
30233;SDS011;17046;52.074;4.748;2022-10-26T04:31:48;13.27;;;6.87;;
30233;SDS011;17046;52.074;4.748;2022-10-26T04:34:14;14.97;;;7.60;;
30233;SDS011;17046;52.074;4.748;2022-10-26T04:36:40;14.47;;;8.20;;
30233;SDS011;17046;52.074;4.748;2022-10-26T04:39:05;11.43;;;7.30;;
30233;SDS011;17046;52.074;4.748;2022-10-26T04:41:31;11.67;;;7.67;;
30233;SDS011;17046;52.074;4.748;2022-10-26T04:43:56;11.93;;;7.37;;
30233;SDS011;17046;52.074;4.748;2022-10-26T04:46:22;11.03;;;7.30;;
30233;SDS011;17046;52.074;4.748;2022-10-26T04:48:47;13.80;;;7.47;;
30233;SDS011;17046;52.074;4.748;2022-10-26T04:51:13;15.30;;;7.83;;
30233;SDS011;17046;52.074;4.748;2022-10-26T04:53:38;14.03;;;7.80;;
30233;SDS011;17046;52.074;4.748;2022-10-26T04:56:04;13.90;;;7.93;;
30233;SDS011;17046;52.074;4.748;2022-10-26T04:58:29;11.83;;;8.07;;
30233;SDS011;17046;52.074;4.748;2022-10-26T05:00:55;14.40;;;8.63;;
30233;SDS011;17046;52.074;4.748;2022-10-26T05:03:21;14.90;;;8.50;;
30233;SDS011;17046;52.074;4.748;2022-10-26T05:05:46;12.57;;;7.80;;
30233;SDS011;17046;52.074;4.748;2022-10-26T05:08:12;12.37;;;7.93;;
30233;SDS011;17046;52.074;4.748;2022-10-26T05:10:38;14.80;;;8.40;;
30233;SDS011;17046;52.074;4.748;2022-10-26T05:13:04;14.70;;;8.33;;
30233;SDS011;17046;52.074;4.748;2022-10-26T05:15:30;13.27;;;8.40;;
30233;SDS011;17046;52.074;4.748;2022-10-26T05:17:59;15.73;;;8.60;;
30233;SDS011;17046;52.074;4.748;2022-10-26T05:20:30;12.00;;;7.87;;
30233;SDS011;17046;52.074;4.748;2022-10-26T05:22:58;12.70;;;8.10;;
30233;SDS011;17046;52.074;4.748;2022-10-26T05:25:26;18.40;;;9.20;;
30233;SDS011;17046;52.074;4.748;2022-10-26T05:28:00;12.20;;;8.60;;
30233;SDS011;17046;52.074;4.748;2022-10-26T05:30:27;16.43;;;9.13;;
30233;SDS011;17046;52.074;4.748;2022-10-26T05:32:54;15.60;;;8.40;;
30233;SDS011;17046;52.074;4.748;2022-10-26T05:35:20;14.47;;;8.83;;
30233;SDS011;17046;52.074;4.748;2022-10-26T05:37:46;13.33;;;8.37;;
30233;SDS011;17046;52.074;4.748;2022-10-26T05:40:11;14.17;;;8.37;;
30233;SDS011;17046;52.074;4.748;2022-10-26T05:42:37;13.50;;;9.00;;
30233;SDS011;17046;52.074;4.748;2022-10-26T05:45:03;14.13;;;8.67;;
30233;SDS011;17046;52.074;4.748;2022-10-26T05:47:28;16.00;;;8.17;;
30233;SDS011;17046;52.074;4.748;2022-10-26T05:49:54;18.93;;;8.20;;
30233;SDS011;17046;52.074;4.748;2022-10-26T05:52:19;14.53;;;8.13;;
30233;SDS011;17046;52.074;4.748;2022-10-26T05:54:45;16.27;;;8.63;;
30233;SDS011;17046;52.074;4.748;2022-10-26T05:57:11;13.97;;;8.10;;
30233;SDS011;17046;52.074;4.748;2022-10-26T05:59:37;15.47;;;8.33;;
30233;SDS011;17046;52.074;4.748;2022-10-26T06:02:07;16.43;;;8.70;;
30233;SDS011;17046;52.074;4.748;2022-10-26T06:04:42;16.30;;;7.40;;
30233;SDS011;17046;52.074;4.748;2022-10-26T06:07:13;12.90;;;8.00;;
30233;SDS011;17046;52.074;4.748;2022-10-26T06:09:40;14.83;;;8.23;;
30233;SDS011;17046;52.074;4.748;2022-10-26T06:12:07;14.50;;;7.67;;
30233;SDS011;17046;52.074;4.748;2022-10-26T06:14:34;14.83;;;7.33;;
30233;SDS011;17046;52.074;4.748;2022-10-26T06:22:24;10.53;;;7.00;;
30233;SDS011;17046;52.074;4.748;2022-10-26T06:28:14;12.23;;;7.10;;
30233;SDS011;17046;52.074;4.748;2022-10-26T06:30:40;13.87;;;7.10;;
30233;SDS011;17046;52.074;4.748;2022-10-26T06:33:07;10.90;;;6.80;;
30233;SDS011;17046;52.074;4.748;2022-10-26T06:36:20;15.47;;;7.40;;
30233;SDS011;17046;52.074;4.748;2022-10-26T06:38:26;12.17;;;6.63;;
30233;SDS011;17046;52.074;4.748;2022-10-26T06:40:55;14.30;;;6.50;;
30233;SDS011;17046;52.074;4.748;2022-10-26T06:43:25;10.57;;;6.67;;
30233;SDS011;17046;52.074;4.748;2022-10-26T06:51:23;11.30;;;6.90;;
30233;SDS011;17046;52.074;4.748;2022-10-26T06:56:35;10.43;;;6.13;;
30233;SDS011;17046;52.074;4.748;2022-10-26T06:59:03;16.03;;;6.47;;
30233;SDS011;17046;52.074;4.748;2022-10-26T07:01:32;10.03;;;5.23;;
30233;SDS011;17046;52.074;4.748;2022-10-26T07:03:58;8.00;;;5.43;;
30233;SDS011;17046;52.074;4.748;2022-10-26T07:06:24;10.10;;;5.37;;
30233;SDS011;17046;52.074;4.748;2022-10-26T07:08:49;13.43;;;5.03;;
30233;SDS011;17046;52.074;4.748;2022-10-26T07:11:15;9.80;;;4.80;;
30233;SDS011;17046;52.074;4.748;2022-10-26T07:13:40;13.80;;;5.13;;
30233;SDS011;17046;52.074;4.748;2022-10-26T07:16:06;8.90;;;4.90;;
30233;SDS011;17046;52.074;4.748;2022-10-26T07:18:31;11.20;;;4.90;;
30233;SDS011;17046;52.074;4.748;2022-10-26T07:20:57;9.77;;;4.87;;
30233;SDS011;17046;52.074;4.748;2022-10-26T07:23:23;11.97;;;5.10;;
30233;SDS011;17046;52.074;4.748;2022-10-26T07:25:48;9.77;;;4.70;;
30233;SDS011;17046;52.074;4.748;2022-10-26T07:28:14;10.47;;;4.90;;
30233;SDS011;17046;52.074;4.748;2022-10-26T07:30:40;10.40;;;4.60;;
30233;SDS011;17046;52.074;4.748;2022-10-26T07:33:07;10.60;;;5.60;;
30233;SDS011;17046;52.074;4.748;2022-10-26T07:35:35;10.30;;;4.90;;
30233;SDS011;17046;52.074;4.748;2022-10-26T07:38:01;9.73;;;4.77;;
30233;SDS011;17046;52.074;4.748;2022-10-26T07:40:28;9.67;;;4.60;;
30233;SDS011;17046;52.074;4.748;2022-10-26T07:42:58;12.33;;;5.03;;
30233;SDS011;17046;52.074;4.748;2022-10-26T07:45:25;7.77;;;3.90;;
30233;SDS011;17046;52.074;4.748;2022-10-26T07:47:51;9.30;;;4.70;;
30233;SDS011;17046;52.074;4.748;2022-10-26T07:50:17;8.33;;;4.33;;
30233;SDS011;17046;52.074;4.748;2022-10-26T07:52:42;8.47;;;4.60;;
30233;SDS011;17046;52.074;4.748;2022-10-26T07:55:10;11.20;;;4.77;;
30233;SDS011;17046;52.074;4.748;2022-10-26T07:57:36;8.80;;;4.83;;
30233;SDS011;17046;52.074;4.748;2022-10-26T08:00:03;10.90;;;4.53;;
30233;SDS011;17046;52.074;4.748;2022-10-26T08:02:29;8.97;;;4.33;;
30233;SDS011;17046;52.074;4.748;2022-10-26T08:04:55;10.10;;;4.57;;
30233;SDS011;17046;52.074;4.748;2022-10-26T08:07:21;8.40;;;4.50;;
30233;SDS011;17046;52.074;4.748;2022-10-26T08:09:46;10.43;;;4.90;;
30233;SDS011;17046;52.074;4.748;2022-10-26T08:12:12;9.10;;;5.17;;
30233;SDS011;17046;52.074;4.748;2022-10-26T08:14:40;10.53;;;4.53;;
30233;SDS011;17046;52.074;4.748;2022-10-26T08:17:06;8.03;;;4.33;;
30233;SDS011;17046;52.074;4.748;2022-10-26T08:19:32;7.07;;;4.43;;
30233;SDS011;17046;52.074;4.748;2022-10-26T08:21:57;6.83;;;4.10;;
30233;SDS011;17046;52.074;4.748;2022-10-26T08:24:23;9.30;;;3.80;;
30233;SDS011;17046;52.074;4.748;2022-10-26T08:26:48;10.10;;;4.30;;
30233;SDS011;17046;52.074;4.748;2022-10-26T08:29:14;9.00;;;4.10;;
30233;SDS011;17046;52.074;4.748;2022-10-26T08:31:39;6.37;;;3.87;;
30233;SDS011;17046;52.074;4.748;2022-10-26T08:34:05;9.43;;;4.70;;
30233;SDS011;17046;52.074;4.748;2022-10-26T08:36:30;9.33;;;4.90;;
30233;SDS011;17046;52.074;4.748;2022-10-26T08:38:56;9.63;;;4.20;;
30233;SDS011;17046;52.074;4.748;2022-10-26T08:41:35;8.30;;;4.10;;
30233;SDS011;17046;52.074;4.748;2022-10-26T08:44:04;11.33;;;4.10;;
30233;SDS011;17046;52.074;4.748;2022-10-26T08:47:29;7.70;;;4.17;;
30233;SDS011;17046;52.074;4.748;2022-10-26T08:49:52;8.70;;;3.80;;
30233;SDS011;17046;52.074;4.748;2022-10-26T08:52:39;9.50;;;4.30;;
30233;SDS011;17046;52.074;4.748;2022-10-26T08:55:15;9.03;;;4.57;;
30233;SDS011;17046;52.074;4.748;2022-10-26T08:57:43;7.57;;;4.10;;
30233;SDS011;17046;52.074;4.748;2022-10-26T09:00:14;8.47;;;3.97;;
30233;SDS011;17046;52.074;4.748;2022-10-26T09:02:44;5.87;;;3.87;;
30233;SDS011;17046;52.074;4.748;2022-10-26T09:05:14;7.73;;;3.40;;
30233;SDS011;17046;52.074;4.748;2022-10-26T09:10:50;6.57;;;3.63;;
30233;SDS011;17046;52.074;4.748;2022-10-26T09:19:20;10.67;;;3.57;;
30233;SDS011;17046;52.074;4.748;2022-10-26T09:22:06;9.00;;;3.23;;
30233;SDS011;17046;52.074;4.748;2022-10-26T09:24:41;7.03;;;2.97;;
30233;SDS011;17046;52.074;4.748;2022-10-26T09:27:19;6.03;;;3.03;;
30233;SDS011;17046;52.074;4.748;2022-10-26T09:29:50;7.00;;;2.70;;
30233;SDS011;17046;52.074;4.748;2022-10-26T09:32:17;5.63;;;2.47;;
30233;SDS011;17046;52.074;4.748;2022-10-26T09:34:48;8.10;;;2.63;;
30233;SDS011;17046;52.074;4.748;2022-10-26T09:37:20;8.83;;;3.27;;
30233;SDS011;17046;52.074;4.748;2022-10-26T09:45:16;6.33;;;2.90;;
30233;SDS011;17046;52.074;4.748;2022-10-26T09:47:50;7.47;;;2.73;;
30233;SDS011;17046;52.074;4.748;2022-10-26T09:50:20;8.93;;;3.20;;
30233;SDS011;17046;52.074;4.748;2022-10-26T09:52:55;7.20;;;2.80;;
30233;SDS011;17046;52.074;4.748;2022-10-26T09:55:21;6.50;;;2.77;;
30233;SDS011;17046;52.074;4.748;2022-10-26T09:57:48;7.87;;;2.70;;
30233;SDS011;17046;52.074;4.748;2022-10-26T10:00:18;10.83;;;3.20;;
30233;SDS011;17046;52.074;4.748;2022-10-26T10:02:48;5.73;;;2.73;;
30233;SDS011;17046;52.074;4.748;2022-10-26T10:07:47;8.50;;;2.80;;
30233;SDS011;17046;52.074;4.748;2022-10-26T10:10:17;11.17;;;2.80;;
30233;SDS011;17046;52.074;4.748;2022-10-26T10:12:45;9.33;;;2.87;;
30233;SDS011;17046;52.074;4.748;2022-10-26T10:15:19;8.13;;;2.87;;
30233;SDS011;17046;52.074;4.748;2022-10-26T10:17:47;11.60;;;3.27;;
30233;SDS011;17046;52.074;4.748;2022-10-26T10:20:20;9.90;;;2.70;;
30233;SDS011;17046;52.074;4.748;2022-10-26T10:22:59;9.50;;;3.27;;
30233;SDS011;17046;52.074;4.748;2022-10-26T10:25:30;7.80;;;3.60;;
30233;SDS011;17046;52.074;4.748;2022-10-26T10:27:58;8.10;;;3.63;;
30233;SDS011;17046;52.074;4.748;2022-10-26T10:30:28;7.00;;;4.00;;
30233;SDS011;17046;52.074;4.748;2022-10-26T10:33:02;8.70;;;3.70;;
30233;SDS011;17046;52.074;4.748;2022-10-26T10:35:34;8.13;;;3.53;;
30233;SDS011;17046;52.074;4.748;2022-10-26T10:38:00;6.67;;;3.70;;
30233;SDS011;17046;52.074;4.748;2022-10-26T10:40:27;9.17;;;4.27;;
30233;SDS011;17046;52.074;4.748;2022-10-26T10:43:04;8.93;;;3.90;;
30233;SDS011;17046;52.074;4.748;2022-10-26T10:45:38;9.43;;;4.27;;
30233;SDS011;17046;52.074;4.748;2022-10-26T10:50:36;7.60;;;4.20;;
30233;SDS011;17046;52.074;4.748;2022-10-26T10:53:49;7.83;;;3.90;;
30233;SDS011;17046;52.074;4.748;2022-10-26T11:01:31;10.20;;;4.57;;
30233;SDS011;17046;52.074;4.748;2022-10-26T11:04:07;8.73;;;3.90;;
30233;SDS011;17046;52.074;4.748;2022-10-26T11:06:47;9.05;;;4.20;;
30233;SDS011;17046;52.074;4.748;2022-10-26T11:09:14;7.43;;;3.72;;
30233;SDS011;17046;52.074;4.748;2022-10-26T11:11:49;10.00;;;3.47;;
30233;SDS011;17046;52.074;4.748;2022-10-26T11:16:55;10.53;;;3.80;;
30233;SDS011;17046;52.074;4.748;2022-10-26T11:19:30;9.80;;;3.30;;
30233;SDS011;17046;52.074;4.748;2022-10-26T11:22:04;8.57;;;3.83;;
30233;SDS011;17046;52.074;4.748;2022-10-26T11:30:21;10.73;;;3.10;;
30233;SDS011;17046;52.074;4.748;2022-10-26T11:32:51;10.27;;;3.03;;
30233;SDS011;17046;52.074;4.748;2022-10-26T11:35:45;7.73;;;3.00;;
30233;SDS011;17046;52.074;4.748;2022-10-26T11:38:39;9.13;;;3.03;;
30233;SDS011;17046;52.074;4.748;2022-10-26T11:43:44;16.23;;;3.78;;
30233;SDS011;17046;52.074;4.748;2022-10-26T11:46:17;6.22;;;3.30;;
30233;SDS011;17046;52.074;4.748;2022-10-26T11:54:34;10.73;;;3.17;;
30233;SDS011;17046;52.074;4.748;2022-10-26T11:57:04;8.90;;;3.10;;
30233;SDS011;17046;52.074;4.748;2022-10-26T11:59:31;4.95;;;2.85;;
30233;SDS011;17046;52.074;4.748;2022-10-26T12:02:03;6.97;;;2.80;;
30233;SDS011;17046;52.074;4.748;2022-10-26T12:04:34;7.47;;;3.00;;
30233;SDS011;17046;52.074;4.748;2022-10-26T12:07:03;9.57;;;2.80;;
30233;SDS011;17046;52.074;4.748;2022-10-26T12:09:35;6.28;;;2.40;;
30233;SDS011;17046;52.074;4.748;2022-10-26T12:12:46;6.70;;;2.60;;
30233;SDS011;17046;52.074;4.748;2022-10-26T12:17:34;8.98;;;2.40;;
30233;SDS011;17046;52.074;4.748;2022-10-26T12:23:02;8.98;;;2.28;;
30233;SDS011;17046;52.074;4.748;2022-10-26T12:25:29;5.47;;;2.05;;
30233;SDS011;17046;52.074;4.748;2022-10-26T12:27:55;9.23;;;2.05;;
30233;SDS011;17046;52.074;4.748;2022-10-26T12:30:32;7.97;;;2.37;;
30233;SDS011;17046;52.074;4.748;2022-10-26T12:32:59;6.30;;;2.30;;
30233;SDS011;17046;52.074;4.748;2022-10-26T12:56:31;6.60;;;2.60;;
30233;SDS011;17046;52.074;4.748;2022-10-26T13:02:15;8.57;;;2.60;;
30233;SDS011;17046;52.074;4.748;2022-10-26T13:05:15;9.50;;;2.90;;
30233;SDS011;17046;52.074;4.748;2022-10-26T13:08:06;10.02;;;2.47;;
30233;SDS011;17046;52.074;4.748;2022-10-26T13:10:37;7.77;;;3.10;;
30233;SDS011;17046;52.074;4.748;2022-10-26T13:13:17;6.72;;;2.42;;
30233;SDS011;17046;52.074;4.748;2022-10-26T13:15:51;7.53;;;2.33;;
30233;SDS011;17046;52.074;4.748;2022-10-26T13:18:21;9.33;;;2.37;;
30233;SDS011;17046;52.074;4.748;2022-10-26T13:21:06;5.50;;;2.25;;
30233;SDS011;17046;52.074;4.748;2022-10-26T13:23:41;10.47;;;2.73;;
30233;SDS011;17046;52.074;4.748;2022-10-26T13:26:26;8.13;;;2.20;;
30233;SDS011;17046;52.074;4.748;2022-10-26T13:28:54;7.43;;;2.20;;
30233;SDS011;17046;52.074;4.748;2022-10-26T13:33:55;6.22;;;1.95;;
30233;SDS011;17046;52.074;4.748;2022-10-26T13:39:12;5.82;;;2.08;;
30233;SDS011;17046;52.074;4.748;2022-10-26T13:41:45;8.15;;;2.15;;
30233;SDS011;17046;52.074;4.748;2022-10-26T13:44:15;9.60;;;2.35;;
30233;SDS011;17046;52.074;4.748;2022-10-26T13:46:50;5.57;;;1.70;;
30233;SDS011;17046;52.074;4.748;2022-10-26T13:49:26;10.95;;;1.85;;
30233;SDS011;17046;52.074;4.748;2022-10-26T13:51:54;11.18;;;1.98;;
30233;SDS011;17046;52.074;4.748;2022-10-26T13:54:28;7.32;;;1.70;;
30233;SDS011;17046;52.074;4.748;2022-10-26T13:59:58;8.10;;;1.90;;
30233;SDS011;17046;52.074;4.748;2022-10-26T14:02:31;5.45;;;1.50;;
30233;SDS011;17046;52.074;4.748;2022-10-26T14:05:01;8.68;;;1.80;;
30233;SDS011;17046;52.074;4.748;2022-10-26T14:07:51;9.50;;;1.70;;
30233;SDS011;17046;52.074;4.748;2022-10-26T14:10:39;5.38;;;1.50;;
30233;SDS011;17046;52.074;4.748;2022-10-26T14:13:11;8.05;;;2.25;;
30233;SDS011;17046;52.074;4.748;2022-10-26T14:15:42;8.27;;;1.63;;
30233;SDS011;17046;52.074;4.748;2022-10-26T14:18:16;7.05;;;1.80;;
30233;SDS011;17046;52.074;4.748;2022-10-26T14:20:48;6.95;;;1.75;;
30233;SDS011;17046;52.074;4.748;2022-10-26T14:23:32;10.10;;;1.85;;
30233;SDS011;17046;52.074;4.748;2022-10-26T14:25:58;6.13;;;1.67;;
30233;SDS011;17046;52.074;4.748;2022-10-26T14:28:24;8.65;;;2.63;;
30233;SDS011;17046;52.074;4.748;2022-10-26T14:30:52;5.45;;;1.73;;
30233;SDS011;17046;52.074;4.748;2022-10-26T14:33:18;4.25;;;1.70;;
30233;SDS011;17046;52.074;4.748;2022-10-26T14:35:49;7.70;;;2.35;;
30233;SDS011;17046;52.074;4.748;2022-10-26T14:38:16;6.10;;;2.22;;
30233;SDS011;17046;52.074;4.748;2022-10-26T14:40:46;6.80;;;1.80;;
30233;SDS011;17046;52.074;4.748;2022-10-26T14:43:15;4.93;;;2.30;;
30233;SDS011;17046;52.074;4.748;2022-10-26T14:45:46;7.63;;;1.50;;
30233;SDS011;17046;52.074;4.748;2022-10-26T14:48:20;7.20;;;1.55;;
30233;SDS011;17046;52.074;4.748;2022-10-26T14:51:01;9.07;;;2.10;;
30233;SDS011;17046;52.074;4.748;2022-10-26T14:53:55;7.70;;;2.30;;
30233;SDS011;17046;52.074;4.748;2022-10-26T14:58:55;7.18;;;1.60;;
30233;SDS011;17046;52.074;4.748;2022-10-26T15:04:06;6.07;;;1.90;;
30233;SDS011;17046;52.074;4.748;2022-10-26T15:06:50;5.87;;;2.30;;
30233;SDS011;17046;52.074;4.748;2022-10-26T15:09:28;3.90;;;1.47;;
30233;SDS011;17046;52.074;4.748;2022-10-26T15:12:03;6.47;;;1.67;;
30233;SDS011;17046;52.074;4.748;2022-10-26T15:14:29;5.78;;;1.70;;
30233;SDS011;17046;52.074;4.748;2022-10-26T15:16:56;5.45;;;1.40;;
30233;SDS011;17046;52.074;4.748;2022-10-26T15:19:22;7.53;;;1.92;;
30233;SDS011;17046;52.074;4.748;2022-10-26T15:21:51;5.18;;;1.67;;
30233;SDS011;17046;52.074;4.748;2022-10-26T15:24:36;9.50;;;1.63;;
30233;SDS011;17046;52.074;4.748;2022-10-26T15:27:03;10.07;;;2.00;;
30233;SDS011;17046;52.074;4.748;2022-10-26T15:29:39;5.47;;;1.67;;
30233;SDS011;17046;52.074;4.748;2022-10-26T15:34:47;5.00;;;1.80;;
30233;SDS011;17046;52.074;4.748;2022-10-26T15:37:29;7.30;;;1.73;;
30233;SDS011;17046;52.074;4.748;2022-10-26T15:39:54;7.33;;;1.80;;
30233;SDS011;17046;52.074;4.748;2022-10-26T15:42:23;5.60;;;1.87;;
30233;SDS011;17046;52.074;4.748;2022-10-26T15:44:51;7.43;;;1.43;;
30233;SDS011;17046;52.074;4.748;2022-10-26T15:47:17;6.50;;;1.47;;
30233;SDS011;17046;52.074;4.748;2022-10-26T15:49:45;7.27;;;1.43;;
30233;SDS011;17046;52.074;4.748;2022-10-26T15:52:11;8.33;;;1.50;;
30233;SDS011;17046;52.074;4.748;2022-10-26T15:54:37;6.87;;;1.33;;
30233;SDS011;17046;52.074;4.748;2022-10-26T15:57:03;5.97;;;1.73;;
30233;SDS011;17046;52.074;4.748;2022-10-26T15:59:28;7.60;;;1.60;;
30233;SDS011;17046;52.074;4.748;2022-10-26T16:01:54;7.93;;;1.83;;
30233;SDS011;17046;52.074;4.748;2022-10-26T16:04:19;5.63;;;1.60;;
30233;SDS011;17046;52.074;4.748;2022-10-26T16:06:45;7.32;;;1.70;;
30233;SDS011;17046;52.074;4.748;2022-10-26T16:09:15;4.00;;;1.57;;
30233;SDS011;17046;52.074;4.748;2022-10-26T16:11:42;6.90;;;1.90;;
30233;SDS011;17046;52.074;4.748;2022-10-26T16:14:11;11.40;;;2.00;;
30233;SDS011;17046;52.074;4.748;2022-10-26T16:16:36;8.10;;;1.95;;
30233;SDS011;17046;52.074;4.748;2022-10-26T16:19:02;8.45;;;1.80;;
30233;SDS011;17046;52.074;4.748;2022-10-26T16:21:28;7.60;;;1.63;;
30233;SDS011;17046;52.074;4.748;2022-10-26T16:23:54;8.70;;;1.77;;
30233;SDS011;17046;52.074;4.748;2022-10-26T16:26:21;11.40;;;2.15;;
30233;SDS011;17046;52.074;4.748;2022-10-26T16:28:47;5.60;;;1.73;;
30233;SDS011;17046;52.074;4.748;2022-10-26T16:31:14;8.50;;;2.10;;
30233;SDS011;17046;52.074;4.748;2022-10-26T16:33:41;7.65;;;2.10;;
30233;SDS011;17046;52.074;4.748;2022-10-26T16:36:07;8.07;;;1.77;;
30233;SDS011;17046;52.074;4.748;2022-10-26T16:38:34;8.03;;;2.13;;
30233;SDS011;17046;52.074;4.748;2022-10-26T16:43:29;7.77;;;2.10;;
30233;SDS011;17046;52.074;4.748;2022-10-26T16:45:56;8.20;;;1.77;;
30233;SDS011;17046;52.074;4.748;2022-10-26T16:48:22;10.25;;;2.15;;
30233;SDS011;17046;52.074;4.748;2022-10-26T16:50:47;6.93;;;2.00;;
30233;SDS011;17046;52.074;4.748;2022-10-26T16:53:13;6.23;;;1.80;;
30233;SDS011;17046;52.074;4.748;2022-10-26T16:55:38;6.25;;;1.70;;
30233;SDS011;17046;52.074;4.748;2022-10-26T16:58:04;7.60;;;1.90;;
30233;SDS011;17046;52.074;4.748;2022-10-26T17:00:29;7.30;;;2.00;;
30233;SDS011;17046;52.074;4.748;2022-10-26T17:02:55;7.30;;;2.00;;
30233;SDS011;17046;52.074;4.748;2022-10-26T17:05:21;5.90;;;1.63;;
30233;SDS011;17046;52.074;4.748;2022-10-26T17:07:46;7.53;;;1.80;;
30233;SDS011;17046;52.074;4.748;2022-10-26T17:10:12;6.85;;;1.73;;
30233;SDS011;17046;52.074;4.748;2022-10-26T17:12:37;7.43;;;2.07;;